createdAt,value
2018-12-29T00:00:36.396Z,2.50
2018-12-29T00:03:39.811Z,2.50
2018-12-29T00:06:43.256Z,2.60
2018-12-29T00:09:46.710Z,2.50
2018-12-29T00:12:50.140Z,2.50
2018-12-29T00:15:53.557Z,2.50
2018-12-29T00:18:56.996Z,2.50
2018-12-29T00:22:00.437Z,2.50
2018-12-29T00:25:03.857Z,2.50
2018-12-29T00:28:07.300Z,2.50
2018-12-29T00:31:10.716Z,2.50
2018-12-29T00:34:14.158Z,2.50
2018-12-29T00:37:17.576Z,2.50
2018-12-29T00:40:21.019Z,2.50
2018-12-29T00:43:24.457Z,2.50
2018-12-29T00:46:27.892Z,2.50
2018-12-29T00:49:31.304Z,2.60
2018-12-29T00:52:34.749Z,2.60
2018-12-29T00:55:38.265Z,2.70
2018-12-29T00:58:41.696Z,2.70
2018-12-29T01:01:45.135Z,2.70
2018-12-29T01:04:48.580Z,2.70
2018-12-29T01:07:51.997Z,2.80
2018-12-29T01:10:55.439Z,2.80
2018-12-29T01:13:58.872Z,2.80
2018-12-29T01:17:02.309Z,2.90
2018-12-29T01:20:06.019Z,2.80
2018-12-29T01:23:09.470Z,2.80
2018-12-29T01:26:12.884Z,2.80
2018-12-29T01:29:16.340Z,2.80
2018-12-29T01:32:19.749Z,2.90
2018-12-29T01:35:23.192Z,2.80
2018-12-29T01:38:26.629Z,2.80
2018-12-29T01:41:30.073Z,2.80
2018-12-29T01:44:33.492Z,2.90
2018-12-29T01:47:36.935Z,2.90
2018-12-29T01:50:40.348Z,2.80
2018-12-29T01:53:46.898Z,2.80
2018-12-29T01:56:50.304Z,2.80
2018-12-29T01:59:53.741Z,2.80
2018-12-29T02:02:57.172Z,2.80
2018-12-29T02:06:00.588Z,2.90
2018-12-29T02:09:05.068Z,2.90
2018-12-29T02:12:08.485Z,2.90
2018-12-29T02:15:11.922Z,2.90
2018-12-29T02:18:15.349Z,3.00
2018-12-29T02:21:18.781Z,3.00
2018-12-29T02:24:22.258Z,3.00
2018-12-29T02:27:25.710Z,2.90
2018-12-29T02:30:29.245Z,2.90
2018-12-29T02:33:32.653Z,2.90
2018-12-29T02:36:36.103Z,3.00
2018-12-29T02:39:39.516Z,2.90
2018-12-29T02:42:42.954Z,2.90
2018-12-29T02:45:46.371Z,2.80
2018-12-29T02:48:49.805Z,2.80
2018-12-29T02:51:53.246Z,2.90
2018-12-29T02:54:56.757Z,2.80
2018-12-29T02:58:00.173Z,2.80
2018-12-29T03:01:03.600Z,2.80
2018-12-29T03:04:07.021Z,2.80
2018-12-29T03:07:10.466Z,2.80
2018-12-29T03:10:13.892Z,2.80
2018-12-29T03:13:17.313Z,2.90
2018-12-29T03:16:20.752Z,2.90
2018-12-29T03:19:24.160Z,2.90
2018-12-29T03:22:27.597Z,3.00
2018-12-29T03:25:31.008Z,2.90
2018-12-29T03:28:34.450Z,2.90
2018-12-29T03:31:37.871Z,3.00
2018-12-29T03:34:41.397Z,3.00
2018-12-29T03:37:44.808Z,2.90
2018-12-29T03:40:48.244Z,2.90
2018-12-29T03:43:51.656Z,2.90
2018-12-29T03:46:55.093Z,2.80
2018-12-29T03:49:58.513Z,2.90
2018-12-29T03:53:02.876Z,2.90
2018-12-29T03:56:06.317Z,2.90
2018-12-29T03:59:09.749Z,2.80
2018-12-29T04:02:13.185Z,2.80
2018-12-29T04:05:16.629Z,2.90
2018-12-29T04:08:20.077Z,2.90
2018-12-29T04:11:23.497Z,2.90
2018-12-29T04:14:26.933Z,2.90
2018-12-29T04:17:30.380Z,2.80
2018-12-29T04:20:33.788Z,2.90
2018-12-29T04:23:37.229Z,2.90
2018-12-29T04:26:40.646Z,2.90
2018-12-29T04:29:44.080Z,2.90
2018-12-29T04:32:47.532Z,2.90
2018-12-29T04:35:50.942Z,2.90
2018-12-29T04:38:54.393Z,2.90
2018-12-29T04:41:57.804Z,3.00
2018-12-29T04:45:01.252Z,3.00
2018-12-29T04:48:04.680Z,3.00
2018-12-29T04:51:08.130Z,3.00
2018-12-29T04:54:11.537Z,2.90
2018-12-29T04:57:14.974Z,2.90
2018-12-29T05:00:18.392Z,2.90
2018-12-29T05:03:21.837Z,2.90
2018-12-29T05:06:25.268Z,2.90
2018-12-29T05:09:28.692Z,2.90
2018-12-29T05:12:32.128Z,2.90
2018-12-29T05:15:35.546Z,2.90
2018-12-29T05:18:38.993Z,2.90
2018-12-29T05:21:42.411Z,2.90
2018-12-29T05:24:45.848Z,2.90
2018-12-29T05:27:49.261Z,2.90
2018-12-29T05:30:52.700Z,2.80
2018-12-29T05:33:56.133Z,2.80
2018-12-29T05:36:59.548Z,2.90
2018-12-29T05:40:03.180Z,2.80
2018-12-29T05:43:06.600Z,2.80
2018-12-29T05:46:10.036Z,2.90
2018-12-29T05:49:13.472Z,2.90
2018-12-29T05:52:16.913Z,2.80
2018-12-29T05:55:20.329Z,2.80
2018-12-29T05:58:23.778Z,2.80
2018-12-29T06:01:27.197Z,2.80
2018-12-29T06:04:30.637Z,2.80
2018-12-29T06:07:34.064Z,2.80
2018-12-29T06:10:37.478Z,2.80
2018-12-29T06:13:40.909Z,2.80
2018-12-29T06:16:44.321Z,2.90
2018-12-29T06:19:47.760Z,2.90
2018-12-29T06:22:51.172Z,2.90
2018-12-29T06:25:54.605Z,2.90
2018-12-29T06:28:58.044Z,2.90
2018-12-29T06:32:01.458Z,3.00
2018-12-29T06:35:05.172Z,3.00
2018-12-29T06:38:08.596Z,2.90
2018-12-29T06:41:12.017Z,2.90
2018-12-29T06:44:15.458Z,3.00
2018-12-29T06:47:18.876Z,3.00
2018-12-29T06:50:22.288Z,3.00
2018-12-29T06:53:25.724Z,3.10
2018-12-29T06:56:29.145Z,3.10
2018-12-29T06:59:32.589Z,3.10
2018-12-29T07:02:36.013Z,3.10
2018-12-29T07:05:39.460Z,3.10
2018-12-29T07:08:42.868Z,3.10
2018-12-29T07:11:46.313Z,3.00
2018-12-29T07:14:49.757Z,3.00
2018-12-29T07:17:53.177Z,3.00
2018-12-29T07:20:56.612Z,3.00
2018-12-29T07:24:00.066Z,3.10
2018-12-29T07:27:03.527Z,3.10
2018-12-29T07:30:07.913Z,3.10
2018-12-29T07:33:11.328Z,3.10
2018-12-29T07:36:14.773Z,3.00
2018-12-29T07:39:18.185Z,3.00
2018-12-29T07:42:21.628Z,3.10
2018-12-29T07:45:25.042Z,3.00
2018-12-29T07:48:28.479Z,3.00
2018-12-29T07:51:31.924Z,3.00
2018-12-29T07:54:35.336Z,3.00
2018-12-29T07:57:38.786Z,3.00
2018-12-29T08:00:42.197Z,3.00
2018-12-29T08:03:45.640Z,3.10
2018-12-29T08:06:49.057Z,3.10
2018-12-29T08:09:52.501Z,3.10
2018-12-29T08:12:55.913Z,3.10
2018-12-29T08:15:59.357Z,3.10
2018-12-29T08:19:02.795Z,3.20
2018-12-29T08:22:06.214Z,3.20
2018-12-29T08:25:09.646Z,3.20
2018-12-29T08:28:13.090Z,3.20
2018-12-29T08:31:16.541Z,3.20
2018-12-29T08:34:19.966Z,3.20
2018-12-29T08:37:23.441Z,3.30
2018-12-29T08:40:26.857Z,3.30
2018-12-29T08:43:30.321Z,3.40
2018-12-29T08:46:33.742Z,3.40
2018-12-29T08:49:37.188Z,3.50
2018-12-29T08:52:40.596Z,3.50
2018-12-29T08:55:44.065Z,3.50
2018-12-29T08:58:47.457Z,3.50
2018-12-29T09:01:50.893Z,3.50
2018-12-29T09:04:54.311Z,3.60
2018-12-29T09:07:57.756Z,3.60
2018-12-29T09:11:01.168Z,3.60
2018-12-29T09:14:04.616Z,3.70
2018-12-29T09:17:12.067Z,3.70
2018-12-29T09:20:13.197Z,3.70
2018-12-29T09:23:16.642Z,3.70
2018-12-29T09:26:20.060Z,3.70
2018-12-29T09:29:23.504Z,3.80
2018-12-29T09:32:26.916Z,3.90
2018-12-29T09:35:30.357Z,3.90
2018-12-29T09:38:33.777Z,4.00
2018-12-29T09:41:37.213Z,3.90
2018-12-29T09:44:40.657Z,4.00
2018-12-29T09:47:44.073Z,3.90
2018-12-29T09:50:47.509Z,3.90
2018-12-29T09:53:50.948Z,3.90
2018-12-29T09:56:54.380Z,4.00
2018-12-29T09:59:57.797Z,4.00
2018-12-29T10:03:01.240Z,4.00
2018-12-29T10:06:04.652Z,3.90
2018-12-29T10:09:08.101Z,3.90
2018-12-29T10:12:11.512Z,3.80
2018-12-29T10:15:14.961Z,3.80
2018-12-29T10:18:18.387Z,3.90
2018-12-29T10:21:21.820Z,3.90
2018-12-29T10:24:25.236Z,3.90
2018-12-29T10:27:28.681Z,4.00
2018-12-29T10:30:32.097Z,4.00
2018-12-29T10:33:35.541Z,4.00
2018-12-29T10:36:38.961Z,4.10
2018-12-29T10:39:42.672Z,4.10
2018-12-29T10:42:46.083Z,4.20
2018-12-29T10:45:49.531Z,4.20
2018-12-29T10:48:52.933Z,4.20
2018-12-29T10:51:56.369Z,4.20
2018-12-29T10:54:59.947Z,4.30
2018-12-29T10:58:03.396Z,4.30
2018-12-29T11:01:06.808Z,4.30
2018-12-29T11:04:10.269Z,4.40
2018-12-29T11:07:13.772Z,4.30
2018-12-29T11:10:17.190Z,4.30
2018-12-29T11:13:20.637Z,4.30
2018-12-29T11:16:24.053Z,4.40
2018-12-29T11:19:27.497Z,4.40
2018-12-29T11:22:30.929Z,4.30
2018-12-29T11:25:34.346Z,4.30
2018-12-29T11:28:37.785Z,4.30
2018-12-29T11:31:41.229Z,4.30
2018-12-29T11:34:44.649Z,4.20
2018-12-29T11:37:48.097Z,4.30
2018-12-29T11:40:51.513Z,4.20
2018-12-29T11:43:54.978Z,4.30
2018-12-29T11:46:58.387Z,4.30
2018-12-29T11:50:01.837Z,4.30
2018-12-29T11:53:05.257Z,4.40
2018-12-29T11:56:08.689Z,4.40
2018-12-29T11:59:12.105Z,4.50
2018-12-29T12:02:15.545Z,4.50
2018-12-29T12:05:19.335Z,4.50
2018-12-29T12:08:22.836Z,4.40
2018-12-29T12:11:26.256Z,4.40
2018-12-29T12:14:29.712Z,4.40
2018-12-29T12:17:33.120Z,4.40
2018-12-29T12:20:36.571Z,4.50
2018-12-29T12:23:39.978Z,4.50
2018-12-29T12:26:43.601Z,4.50
2018-12-29T12:29:47.012Z,4.50
2018-12-29T12:32:50.458Z,4.50
2018-12-29T12:35:53.872Z,4.50
2018-12-29T12:38:57.320Z,4.50
2018-12-29T12:42:01.012Z,4.40
2018-12-29T12:45:04.879Z,4.50
2018-12-29T12:48:08.326Z,4.50
2018-12-29T12:51:11.731Z,4.60
2018-12-29T12:54:15.253Z,4.60
2018-12-29T12:57:18.676Z,4.60
2018-12-29T13:00:22.480Z,4.60
2018-12-29T13:03:26.301Z,4.60
2018-12-29T13:06:29.717Z,4.50
2018-12-29T13:09:33.216Z,4.50
2018-12-29T13:12:36.640Z,4.50
2018-12-29T13:15:40.157Z,4.50
2018-12-29T13:18:43.574Z,4.50
2018-12-29T13:21:47.025Z,4.60
2018-12-29T13:24:50.440Z,4.60
2018-12-29T13:27:53.885Z,4.60
2018-12-29T13:30:57.301Z,4.60
2018-12-29T13:34:00.753Z,4.50
2018-12-29T13:37:04.182Z,4.40
2018-12-29T13:40:09.369Z,4.40
2018-12-29T13:43:12.785Z,4.40
2018-12-29T13:46:16.229Z,4.40
2018-12-29T13:49:19.641Z,4.50
2018-12-29T13:52:23.083Z,4.50
2018-12-29T13:55:26.501Z,4.40
2018-12-29T13:58:29.949Z,4.40
2018-12-29T14:01:33.613Z,4.40
2018-12-29T14:04:37.068Z,4.40
2018-12-29T14:07:41.304Z,4.50
2018-12-29T14:10:44.960Z,4.50
2018-12-29T14:13:48.540Z,4.40
2018-12-29T14:16:52.265Z,4.40
2018-12-29T14:19:55.781Z,4.40
2018-12-29T14:22:59.392Z,4.50
2018-12-29T14:26:02.869Z,4.50
2018-12-29T14:29:06.358Z,4.40
2018-12-29T14:32:09.837Z,4.50
2018-12-29T14:35:13.464Z,4.50
2018-12-29T14:38:16.880Z,4.50
2018-12-29T14:41:20.325Z,4.60
2018-12-29T14:44:23.744Z,4.60
2018-12-29T14:47:27.184Z,4.60
2018-12-29T14:50:30.601Z,4.50
2018-12-29T14:53:34.053Z,4.50
2018-12-29T14:56:37.744Z,4.50
2018-12-29T14:59:41.185Z,4.50
2018-12-29T15:02:44.596Z,4.50
2018-12-29T15:05:48.042Z,4.50
2018-12-29T15:08:51.481Z,4.50
2018-12-29T15:11:54.913Z,4.50
2018-12-29T15:14:58.420Z,4.40
2018-12-29T15:18:01.919Z,4.50
2018-12-29T15:21:05.851Z,4.50
2018-12-29T15:24:09.484Z,4.40
2018-12-29T15:27:13.106Z,4.40
2018-12-29T15:30:16.798Z,4.40
2018-12-29T15:33:20.571Z,4.40
2018-12-29T15:36:24.161Z,4.40
2018-12-29T15:39:27.853Z,4.40
2018-12-29T15:42:31.497Z,4.40
2018-12-29T15:45:35.204Z,4.40
2018-12-29T15:48:38.842Z,4.40
2018-12-29T15:51:42.411Z,4.40
2018-12-29T15:54:46.116Z,4.40
2018-12-29T15:57:49.601Z,4.30
2018-12-29T16:00:53.036Z,4.30
2018-12-29T16:03:56.452Z,4.30
2018-12-29T16:06:59.960Z,4.30
2018-12-29T16:10:04.316Z,4.30
2018-12-29T16:13:07.760Z,4.30
2018-12-29T16:16:11.204Z,4.30
2018-12-29T16:19:14.708Z,4.40
2018-12-29T16:22:18.192Z,4.40
2018-12-29T16:25:22.308Z,4.40
2018-12-29T16:28:25.842Z,4.50
2018-12-29T16:31:29.395Z,4.40
2018-12-29T16:34:32.924Z,4.40
2018-12-29T16:37:37.533Z,4.40
2018-12-29T16:40:41.294Z,4.40
2018-12-29T16:43:44.883Z,4.40
2018-12-29T16:46:48.469Z,4.40
2018-12-29T16:49:52.034Z,4.30
2018-12-29T16:52:55.831Z,4.30
2018-12-29T16:55:59.336Z,4.30
2018-12-29T16:59:02.761Z,4.20
2018-12-29T17:02:06.196Z,4.20
2018-12-29T17:05:09.609Z,4.20
2018-12-29T17:08:13.040Z,4.10
2018-12-29T17:11:16.733Z,4.10
2018-12-29T17:14:20.549Z,4.10
2018-12-29T17:17:23.995Z,4.00
2018-12-29T17:20:27.399Z,4.00
2018-12-29T17:23:30.842Z,4.00
2018-12-29T17:26:34.344Z,3.90
2018-12-29T17:29:37.856Z,3.80
2018-12-29T17:32:41.273Z,3.80
2018-12-29T17:35:44.997Z,3.80
2018-12-29T17:38:48.989Z,3.70
2018-12-29T17:41:52.601Z,3.80
2018-12-29T17:44:56.300Z,3.80
2018-12-29T17:47:59.939Z,3.80
2018-12-29T17:51:03.972Z,3.80
2018-12-29T17:54:07.848Z,3.70
2018-12-29T17:57:11.350Z,3.70
2018-12-29T18:00:14.858Z,3.70
2018-12-29T18:03:18.353Z,3.70
2018-12-29T18:06:21.975Z,3.70
2018-12-29T18:09:25.506Z,3.60
2018-12-29T18:12:29.308Z,3.70
2018-12-29T18:15:32.832Z,3.70
2018-12-29T18:18:39.471Z,3.70
2018-12-29T18:21:42.981Z,3.70
2018-12-29T18:24:46.389Z,3.80
2018-12-29T18:27:49.876Z,3.80
2018-12-29T18:30:53.320Z,3.80
2018-12-29T18:33:56.833Z,3.70
2018-12-29T18:37:00.230Z,3.80
2018-12-29T18:40:04.212Z,3.80
2018-12-29T18:43:07.625Z,3.80
2018-12-29T18:46:11.141Z,3.70
2018-12-29T18:49:14.592Z,3.80
2018-12-29T18:52:18.069Z,3.80
2018-12-29T18:55:21.509Z,3.80
2018-12-29T18:58:25.199Z,3.80
2018-12-29T19:01:28.689Z,3.80
2018-12-29T19:04:32.125Z,3.80
2018-12-29T19:07:35.545Z,3.80
2018-12-29T19:10:39.160Z,3.80
2018-12-29T19:13:42.854Z,3.80
2018-12-29T19:16:46.289Z,3.90
2018-12-29T19:19:49.722Z,3.90
2018-12-29T19:22:53.161Z,3.90
2018-12-29T19:25:56.601Z,3.90
2018-12-29T19:29:00.397Z,3.90
2018-12-29T19:32:03.854Z,3.90
2018-12-29T19:35:07.625Z,3.90
2018-12-29T19:38:11.127Z,3.90
2018-12-29T19:41:14.868Z,3.90
2018-12-29T19:44:18.678Z,3.90
2018-12-29T19:47:22.401Z,4.00
2018-12-29T19:50:25.889Z,3.90
2018-12-29T19:53:29.392Z,4.00
2018-12-29T19:56:32.913Z,4.00
2018-12-29T19:59:36.601Z,4.00
2018-12-29T20:02:40.050Z,4.00
2018-12-29T20:05:43.738Z,4.00
2018-12-29T20:08:47.173Z,4.00
2018-12-29T20:11:50.613Z,4.10
2018-12-29T20:14:54.029Z,4.10
2018-12-29T20:17:57.468Z,4.10
2018-12-29T20:21:00.905Z,4.10
2018-12-29T20:24:04.393Z,4.20
2018-12-29T20:27:07.833Z,4.10
2018-12-29T20:30:11.249Z,4.20
2018-12-29T20:33:14.684Z,4.30
2018-12-29T20:36:18.120Z,4.30
2018-12-29T20:39:21.581Z,4.30
2018-12-29T20:42:25.061Z,4.30
2018-12-29T20:45:28.538Z,4.30
2018-12-29T20:48:31.965Z,4.30
2018-12-29T20:51:35.416Z,4.30
2018-12-29T20:54:38.929Z,4.40
2018-12-29T20:57:42.349Z,4.40
2018-12-29T21:00:45.792Z,4.40
2018-12-29T21:03:49.208Z,4.40
2018-12-29T21:06:53.032Z,4.40
2018-12-29T21:09:56.472Z,4.30
2018-12-29T21:12:59.916Z,4.30
2018-12-29T21:16:03.331Z,4.30
2018-12-29T21:19:06.848Z,4.30
2018-12-29T21:22:10.265Z,4.30
2018-12-29T21:25:13.701Z,4.40
2018-12-29T21:28:17.117Z,4.40
2018-12-29T21:31:20.553Z,4.40
2018-12-29T21:34:24.121Z,4.40
2018-12-29T21:37:27.557Z,4.50
2018-12-29T21:40:31.089Z,4.40
2018-12-29T21:43:34.576Z,4.50
2018-12-29T21:46:38.294Z,4.50
2018-12-29T21:49:41.847Z,4.50
2018-12-29T21:52:45.280Z,4.60
2018-12-29T21:55:48.976Z,4.60
2018-12-29T21:58:52.455Z,4.60
2018-12-29T22:01:55.965Z,4.60
2018-12-29T22:04:59.384Z,4.60
2018-12-29T22:08:02.807Z,4.60
2018-12-29T22:11:06.246Z,4.80
2018-12-29T22:14:09.668Z,4.80
2018-12-29T22:17:13.096Z,4.90
2018-12-29T22:20:16.531Z,4.90
2018-12-29T22:23:19.944Z,5.00
2018-12-29T22:26:23.384Z,5.20
2018-12-29T22:29:26.788Z,5.30
2018-12-29T22:32:30.241Z,5.40
2018-12-29T22:35:33.962Z,5.50
2018-12-29T22:38:37.399Z,5.60
2018-12-29T22:41:40.865Z,5.60
2018-12-29T22:44:44.297Z,5.70
2018-12-29T22:47:47.816Z,5.80
2018-12-29T22:50:51.325Z,5.80
2018-12-29T22:53:54.732Z,5.80
2018-12-29T22:56:58.196Z,5.90
2018-12-29T23:00:01.724Z,5.90
2018-12-29T23:03:05.280Z,5.90
2018-12-29T23:06:08.694Z,5.90
2018-12-29T23:09:12.203Z,5.80
2018-12-29T23:12:15.626Z,5.80
2018-12-29T23:15:19.061Z,5.80
2018-12-29T23:18:22.578Z,5.80
2018-12-29T23:21:25.994Z,5.80
2018-12-29T23:24:29.501Z,5.70
2018-12-29T23:27:32.904Z,5.70
2018-12-29T23:30:36.332Z,5.60
2018-12-29T23:33:39.760Z,5.60
2018-12-29T23:36:43.201Z,5.60
2018-12-29T23:39:46.691Z,5.60
2018-12-29T23:42:50.196Z,5.60
2018-12-29T23:45:53.689Z,5.60
2018-12-29T23:48:57.140Z,5.60
2018-12-29T23:52:00.620Z,5.60
2018-12-29T23:55:04.226Z,5.60
2018-12-29T23:58:07.657Z,5.50
